sensor_id;sensor_type;location;lat;lon;timestamp;P1;durP1;ratioP1;P2;durP2;ratioP2
19733;SDS011;10018;51.230;7.860;2024-02-14T00:01:48;13.07;;;4.23;;
19733;SDS011;10018;51.230;7.860;2024-02-14T00:04:14;11.00;;;4.27;;
19733;SDS011;10018;51.230;7.860;2024-02-14T00:06:39;8.70;;;3.97;;
19733;SDS011;10018;51.230;7.860;2024-02-14T00:09:05;8.13;;;3.80;;
19733;SDS011;10018;51.230;7.860;2024-02-14T00:11:31;10.63;;;4.60;;
19733;SDS011;10018;51.230;7.860;2024-02-14T00:13:57;8.93;;;4.23;;
19733;SDS011;10018;51.230;7.860;2024-02-14T00:16:24;9.80;;;4.97;;
19733;SDS011;10018;51.230;7.860;2024-02-14T00:18:50;9.17;;;4.50;;
19733;SDS011;10018;51.230;7.860;2024-02-14T00:21:18;8.30;;;4.00;;
19733;SDS011;10018;51.230;7.860;2024-02-14T00:23:44;8.97;;;4.00;;
19733;SDS011;10018;51.230;7.860;2024-02-14T00:26:09;11.60;;;4.60;;
19733;SDS011;10018;51.230;7.860;2024-02-14T00:28:35;10.13;;;4.60;;
19733;SDS011;10018;51.230;7.860;2024-02-14T00:31:00;9.27;;;4.40;;
19733;SDS011;10018;51.230;7.860;2024-02-14T00:33:26;10.27;;;4.33;;
19733;SDS011;10018;51.230;7.860;2024-02-14T00:35:51;9.60;;;4.00;;
19733;SDS011;10018;51.230;7.860;2024-02-14T00:38:18;10.10;;;4.00;;
19733;SDS011;10018;51.230;7.860;2024-02-14T00:40:43;9.87;;;4.30;;
19733;SDS011;10018;51.230;7.860;2024-02-14T00:43:09;10.77;;;4.03;;
19733;SDS011;10018;51.230;7.860;2024-02-14T00:45:35;8.13;;;4.03;;
19733;SDS011;10018;51.230;7.860;2024-02-14T00:48:03;10.07;;;4.40;;
19733;SDS011;10018;51.230;7.860;2024-02-14T00:50:32;8.70;;;4.20;;
19733;SDS011;10018;51.230;7.860;2024-02-14T00:52:58;6.87;;;3.47;;
19733;SDS011;10018;51.230;7.860;2024-02-14T00:55:24;9.40;;;3.90;;
19733;SDS011;10018;51.230;7.860;2024-02-14T00:57:50;9.60;;;3.93;;
19733;SDS011;10018;51.230;7.860;2024-02-14T01:00:16;8.87;;;3.80;;
19733;SDS011;10018;51.230;7.860;2024-02-14T01:02:42;8.83;;;3.73;;
19733;SDS011;10018;51.230;7.860;2024-02-14T01:05:08;6.87;;;3.33;;
19733;SDS011;10018;51.230;7.860;2024-02-14T01:07:34;7.77;;;3.40;;
19733;SDS011;10018;51.230;7.860;2024-02-14T01:10:00;8.03;;;3.30;;
19733;SDS011;10018;51.230;7.860;2024-02-14T01:12:25;6.73;;;3.20;;
19733;SDS011;10018;51.230;7.860;2024-02-14T01:14:51;8.13;;;3.70;;
19733;SDS011;10018;51.230;7.860;2024-02-14T01:17:16;6.37;;;2.90;;
19733;SDS011;10018;51.230;7.860;2024-02-14T01:19:42;11.30;;;3.13;;
19733;SDS011;10018;51.230;7.860;2024-02-14T01:22:08;7.83;;;3.30;;
19733;SDS011;10018;51.230;7.860;2024-02-14T01:24:34;6.90;;;3.23;;
19733;SDS011;10018;51.230;7.860;2024-02-14T01:26:59;9.30;;;3.30;;
19733;SDS011;10018;51.230;7.860;2024-02-14T01:29:28;6.63;;;3.17;;
19733;SDS011;10018;51.230;7.860;2024-02-14T01:31:53;7.07;;;2.63;;
19733;SDS011;10018;51.230;7.860;2024-02-14T01:34:19;5.40;;;2.90;;
19733;SDS011;10018;51.230;7.860;2024-02-14T01:36:45;8.03;;;3.37;;
19733;SDS011;10018;51.230;7.860;2024-02-14T01:39:11;6.97;;;3.17;;
19733;SDS011;10018;51.230;7.860;2024-02-14T01:41:46;9.67;;;3.63;;
19733;SDS011;10018;51.230;7.860;2024-02-14T01:44:13;10.03;;;3.30;;
19733;SDS011;10018;51.230;7.860;2024-02-14T01:46:40;10.97;;;3.33;;
19733;SDS011;10018;51.230;7.860;2024-02-14T01:49:07;11.10;;;3.40;;
19733;SDS011;10018;51.230;7.860;2024-02-14T01:51:33;8.30;;;3.43;;
19733;SDS011;10018;51.230;7.860;2024-02-14T01:54:01;6.83;;;3.10;;
19733;SDS011;10018;51.230;7.860;2024-02-14T01:56:28;6.83;;;3.27;;
19733;SDS011;10018;51.230;7.860;2024-02-14T01:58:55;6.60;;;3.20;;
19733;SDS011;10018;51.230;7.860;2024-02-14T02:01:21;6.33;;;3.10;;
19733;SDS011;10018;51.230;7.860;2024-02-14T02:03:49;6.70;;;3.10;;
19733;SDS011;10018;51.230;7.860;2024-02-14T02:06:14;5.77;;;3.00;;
19733;SDS011;10018;51.230;7.860;2024-02-14T02:08:42;8.97;;;3.30;;
19733;SDS011;10018;51.230;7.860;2024-02-14T02:11:09;5.87;;;2.90;;
19733;SDS011;10018;51.230;7.860;2024-02-14T02:13:34;8.93;;;2.90;;
19733;SDS011;10018;51.230;7.860;2024-02-14T02:16:00;8.23;;;3.50;;
19733;SDS011;10018;51.230;7.860;2024-02-14T02:18:30;6.57;;;3.03;;
19733;SDS011;10018;51.230;7.860;2024-02-14T02:20:56;6.10;;;3.13;;
19733;SDS011;10018;51.230;7.860;2024-02-14T02:23:23;5.53;;;3.03;;
19733;SDS011;10018;51.230;7.860;2024-02-14T02:25:50;5.67;;;2.90;;
19733;SDS011;10018;51.230;7.860;2024-02-14T02:28:16;5.60;;;2.73;;
19733;SDS011;10018;51.230;7.860;2024-02-14T02:30:41;8.03;;;3.20;;
19733;SDS011;10018;51.230;7.860;2024-02-14T02:33:07;9.07;;;3.10;;
19733;SDS011;10018;51.230;7.860;2024-02-14T02:35:33;10.67;;;3.43;;
19733;SDS011;10018;51.230;7.860;2024-02-14T02:37:59;5.80;;;3.10;;
19733;SDS011;10018;51.230;7.860;2024-02-14T02:40:25;8.60;;;3.37;;
19733;SDS011;10018;51.230;7.860;2024-02-14T02:42:52;7.57;;;3.10;;
19733;SDS011;10018;51.230;7.860;2024-02-14T02:45:18;7.57;;;3.33;;
19733;SDS011;10018;51.230;7.860;2024-02-14T02:47:44;6.77;;;3.10;;
19733;SDS011;10018;51.230;7.860;2024-02-14T02:50:09;8.63;;;3.27;;
19733;SDS011;10018;51.230;7.860;2024-02-14T02:52:40;8.10;;;2.93;;
19733;SDS011;10018;51.230;7.860;2024-02-14T02:55:06;5.30;;;2.77;;
19733;SDS011;10018;51.230;7.860;2024-02-14T02:57:32;5.70;;;2.60;;
19733;SDS011;10018;51.230;7.860;2024-02-14T02:59:59;4.77;;;2.77;;
19733;SDS011;10018;51.230;7.860;2024-02-14T03:02:25;6.03;;;2.97;;
19733;SDS011;10018;51.230;7.860;2024-02-14T03:04:51;6.43;;;2.90;;
19733;SDS011;10018;51.230;7.860;2024-02-14T03:07:18;8.13;;;3.00;;
19733;SDS011;10018;51.230;7.860;2024-02-14T03:09:44;5.47;;;2.90;;
19733;SDS011;10018;51.230;7.860;2024-02-14T03:12:10;5.23;;;2.57;;
19733;SDS011;10018;51.230;7.860;2024-02-14T03:14:35;6.93;;;2.87;;
19733;SDS011;10018;51.230;7.860;2024-02-14T03:17:01;8.30;;;2.67;;
19733;SDS011;10018;51.230;7.860;2024-02-14T03:19:28;6.43;;;2.97;;
19733;SDS011;10018;51.230;7.860;2024-02-14T03:21:54;4.63;;;2.53;;
19733;SDS011;10018;51.230;7.860;2024-02-14T03:24:20;5.73;;;2.53;;
19733;SDS011;10018;51.230;7.860;2024-02-14T03:26:46;5.80;;;2.60;;
19733;SDS011;10018;51.230;7.860;2024-02-14T03:29:11;4.73;;;2.57;;
19733;SDS011;10018;51.230;7.860;2024-02-14T03:31:37;7.23;;;2.63;;
19733;SDS011;10018;51.230;7.860;2024-02-14T03:34:05;4.73;;;2.23;;
19733;SDS011;10018;51.230;7.860;2024-02-14T03:36:31;6.53;;;2.20;;
19733;SDS011;10018;51.230;7.860;2024-02-14T03:38:57;5.20;;;2.53;;
19733;SDS011;10018;51.230;7.860;2024-02-14T03:41:28;3.73;;;2.07;;
19733;SDS011;10018;51.230;7.860;2024-02-14T03:43:54;4.60;;;2.00;;
19733;SDS011;10018;51.230;7.860;2024-02-14T03:46:23;4.53;;;2.63;;
19733;SDS011;10018;51.230;7.860;2024-02-14T03:48:49;4.97;;;2.20;;
19733;SDS011;10018;51.230;7.860;2024-02-14T03:51:14;5.57;;;2.20;;
19733;SDS011;10018;51.230;7.860;2024-02-14T03:53:41;3.80;;;2.00;;
19733;SDS011;10018;51.230;7.860;2024-02-14T03:56:07;5.43;;;1.70;;
19733;SDS011;10018;51.230;7.860;2024-02-14T03:58:32;4.10;;;2.00;;
19733;SDS011;10018;51.230;7.860;2024-02-14T04:01:05;5.57;;;1.97;;
19733;SDS011;10018;51.230;7.860;2024-02-14T04:03:31;4.83;;;1.97;;
19733;SDS011;10018;51.230;7.860;2024-02-14T04:05:59;4.80;;;1.70;;
19733;SDS011;10018;51.230;7.860;2024-02-14T04:08:25;5.80;;;2.20;;
19733;SDS011;10018;51.230;7.860;2024-02-14T04:10:51;4.40;;;1.90;;
19733;SDS011;10018;51.230;7.860;2024-02-14T04:13:19;5.57;;;1.87;;
19733;SDS011;10018;51.230;7.860;2024-02-14T04:15:44;4.93;;;2.33;;
19733;SDS011;10018;51.230;7.860;2024-02-14T04:18:11;3.33;;;1.97;;
19733;SDS011;10018;51.230;7.860;2024-02-14T04:20:37;5.23;;;2.40;;
19733;SDS011;10018;51.230;7.860;2024-02-14T04:23:02;3.50;;;1.90;;
19733;SDS011;10018;51.230;7.860;2024-02-14T04:25:31;6.03;;;2.20;;
19733;SDS011;10018;51.230;7.860;2024-02-14T04:27:56;5.17;;;2.27;;
19733;SDS011;10018;51.230;7.860;2024-02-14T04:30:22;4.70;;;2.33;;
19733;SDS011;10018;51.230;7.860;2024-02-14T04:32:48;6.13;;;2.40;;
19733;SDS011;10018;51.230;7.860;2024-02-14T04:35:14;5.60;;;2.37;;
19733;SDS011;10018;51.230;7.860;2024-02-14T04:37:39;4.50;;;2.10;;
19733;SDS011;10018;51.230;7.860;2024-02-14T04:40:08;3.90;;;2.07;;
19733;SDS011;10018;51.230;7.860;2024-02-14T04:42:35;6.43;;;2.63;;
19733;SDS011;10018;51.230;7.860;2024-02-14T04:45:03;5.10;;;2.00;;
19733;SDS011;10018;51.230;7.860;2024-02-14T04:47:29;4.83;;;2.00;;
19733;SDS011;10018;51.230;7.860;2024-02-14T04:49:54;3.67;;;1.83;;
19733;SDS011;10018;51.230;7.860;2024-02-14T04:52:20;5.17;;;2.03;;
19733;SDS011;10018;51.230;7.860;2024-02-14T04:54:46;4.67;;;1.87;;
19733;SDS011;10018;51.230;7.860;2024-02-14T04:57:11;4.97;;;1.80;;
19733;SDS011;10018;51.230;7.860;2024-02-14T04:59:37;4.03;;;1.70;;
19733;SDS011;10018;51.230;7.860;2024-02-14T05:02:03;4.43;;;1.90;;
19733;SDS011;10018;51.230;7.860;2024-02-14T05:04:28;3.20;;;1.70;;
19733;SDS011;10018;51.230;7.860;2024-02-14T05:06:54;3.40;;;1.77;;
19733;SDS011;10018;51.230;7.860;2024-02-14T05:09:20;3.03;;;1.60;;
19733;SDS011;10018;51.230;7.860;2024-02-14T05:11:46;3.83;;;1.77;;
19733;SDS011;10018;51.230;7.860;2024-02-14T05:14:13;2.97;;;1.63;;
19733;SDS011;10018;51.230;7.860;2024-02-14T05:16:39;4.27;;;1.80;;
19733;SDS011;10018;51.230;7.860;2024-02-14T05:19:05;2.60;;;1.40;;
19733;SDS011;10018;51.230;7.860;2024-02-14T05:21:31;3.43;;;1.70;;
19733;SDS011;10018;51.230;7.860;2024-02-14T05:23:56;3.83;;;1.60;;
19733;SDS011;10018;51.230;7.860;2024-02-14T05:26:22;6.03;;;2.00;;
19733;SDS011;10018;51.230;7.860;2024-02-14T05:28:50;3.00;;;1.77;;
19733;SDS011;10018;51.230;7.860;2024-02-14T05:31:16;2.37;;;1.40;;
19733;SDS011;10018;51.230;7.860;2024-02-14T05:33:41;2.80;;;1.50;;
19733;SDS011;10018;51.230;7.860;2024-02-14T05:36:08;4.07;;;1.50;;
19733;SDS011;10018;51.230;7.860;2024-02-14T05:38:36;2.90;;;1.50;;
19733;SDS011;10018;51.230;7.860;2024-02-14T05:41:02;2.70;;;1.70;;
19733;SDS011;10018;51.230;7.860;2024-02-14T05:43:28;3.00;;;1.63;;
19733;SDS011;10018;51.230;7.860;2024-02-14T05:45:53;3.77;;;1.70;;
19733;SDS011;10018;51.230;7.860;2024-02-14T05:48:22;2.90;;;1.60;;
19733;SDS011;10018;51.230;7.860;2024-02-14T05:50:47;3.70;;;1.63;;
19733;SDS011;10018;51.230;7.860;2024-02-14T05:53:13;3.10;;;1.60;;
19733;SDS011;10018;51.230;7.860;2024-02-14T05:55:38;2.53;;;1.63;;
19733;SDS011;10018;51.230;7.860;2024-02-14T05:58:04;3.33;;;1.40;;
19733;SDS011;10018;51.230;7.860;2024-02-14T06:00:30;2.73;;;1.40;;
19733;SDS011;10018;51.230;7.860;2024-02-14T06:02:55;2.93;;;1.70;;
19733;SDS011;10018;51.230;7.860;2024-02-14T06:05:21;2.97;;;1.47;;
19733;SDS011;10018;51.230;7.860;2024-02-14T06:07:47;3.37;;;1.50;;
19733;SDS011;10018;51.230;7.860;2024-02-14T06:10:13;3.13;;;1.43;;
19733;SDS011;10018;51.230;7.860;2024-02-14T06:12:38;2.63;;;1.50;;
19733;SDS011;10018;51.230;7.860;2024-02-14T06:15:08;3.27;;;1.53;;
19733;SDS011;10018;51.230;7.860;2024-02-14T06:17:34;3.03;;;1.73;;
19733;SDS011;10018;51.230;7.860;2024-02-14T06:20:00;5.53;;;1.70;;
19733;SDS011;10018;51.230;7.860;2024-02-14T06:22:30;3.80;;;2.10;;
19733;SDS011;10018;51.230;7.860;2024-02-14T06:24:57;3.10;;;1.70;;
19733;SDS011;10018;51.230;7.860;2024-02-14T06:27:22;4.40;;;1.80;;
19733;SDS011;10018;51.230;7.860;2024-02-14T06:29:48;3.93;;;1.70;;
19733;SDS011;10018;51.230;7.860;2024-02-14T06:32:14;2.90;;;1.80;;
19733;SDS011;10018;51.230;7.860;2024-02-14T06:34:39;3.87;;;1.83;;
19733;SDS011;10018;51.230;7.860;2024-02-14T06:37:05;4.10;;;1.67;;
19733;SDS011;10018;51.230;7.860;2024-02-14T06:39:31;2.27;;;1.50;;
19733;SDS011;10018;51.230;7.860;2024-02-14T06:41:56;2.37;;;1.50;;
19733;SDS011;10018;51.230;7.860;2024-02-14T06:44:27;2.87;;;1.27;;
19733;SDS011;10018;51.230;7.860;2024-02-14T06:46:53;4.23;;;1.30;;
19733;SDS011;10018;51.230;7.860;2024-02-14T06:49:18;4.47;;;1.37;;
19733;SDS011;10018;51.230;7.860;2024-02-14T06:51:44;2.00;;;1.10;;
19733;SDS011;10018;51.230;7.860;2024-02-14T06:54:10;2.27;;;1.20;;
19733;SDS011;10018;51.230;7.860;2024-02-14T06:56:37;1.97;;;1.13;;
19733;SDS011;10018;51.230;7.860;2024-02-14T06:59:03;2.43;;;1.30;;
19733;SDS011;10018;51.230;7.860;2024-02-14T07:01:29;2.40;;;1.43;;
19733;SDS011;10018;51.230;7.860;2024-02-14T07:03:55;2.27;;;1.40;;
19733;SDS011;10018;51.230;7.860;2024-02-14T07:06:21;3.00;;;1.50;;
19733;SDS011;10018;51.230;7.860;2024-02-14T07:08:47;2.60;;;1.30;;
19733;SDS011;10018;51.230;7.860;2024-02-14T07:11:14;3.47;;;1.20;;
19733;SDS011;10018;51.230;7.860;2024-02-14T07:13:40;3.07;;;1.30;;
19733;SDS011;10018;51.230;7.860;2024-02-14T07:16:06;2.80;;;1.30;;
19733;SDS011;10018;51.230;7.860;2024-02-14T07:18:33;2.97;;;1.40;;
19733;SDS011;10018;51.230;7.860;2024-02-14T07:20:59;2.23;;;1.50;;
19733;SDS011;10018;51.230;7.860;2024-02-14T07:23:24;3.27;;;1.67;;
19733;SDS011;10018;51.230;7.860;2024-02-14T07:25:51;3.30;;;1.83;;
19733;SDS011;10018;51.230;7.860;2024-02-14T07:28:16;3.03;;;1.57;;
19733;SDS011;10018;51.230;7.860;2024-02-14T07:30:42;2.37;;;1.50;;
19733;SDS011;10018;51.230;7.860;2024-02-14T07:33:08;2.53;;;1.40;;
19733;SDS011;10018;51.230;7.860;2024-02-14T07:35:34;2.60;;;1.60;;
19733;SDS011;10018;51.230;7.860;2024-02-14T07:38:01;2.00;;;1.20;;
19733;SDS011;10018;51.230;7.860;2024-02-14T07:40:27;2.50;;;1.40;;
19733;SDS011;10018;51.230;7.860;2024-02-14T07:42:56;1.80;;;1.20;;
19733;SDS011;10018;51.230;7.860;2024-02-14T07:45:25;2.10;;;1.10;;
19733;SDS011;10018;51.230;7.860;2024-02-14T07:47:51;2.40;;;1.30;;
19733;SDS011;10018;51.230;7.860;2024-02-14T07:50:16;2.50;;;1.27;;
19733;SDS011;10018;51.230;7.860;2024-02-14T07:52:42;1.87;;;1.00;;
19733;SDS011;10018;51.230;7.860;2024-02-14T07:55:09;2.40;;;1.00;;
19733;SDS011;10018;51.230;7.860;2024-02-14T07:57:41;2.40;;;1.10;;
19733;SDS011;10018;51.230;7.860;2024-02-14T08:00:07;1.43;;;1.00;;
19733;SDS011;10018;51.230;7.860;2024-02-14T08:02:37;1.53;;;0.97;;
19733;SDS011;10018;51.230;7.860;2024-02-14T08:05:02;1.87;;;1.17;;
19733;SDS011;10018;51.230;7.860;2024-02-14T08:07:31;1.90;;;1.03;;
19733;SDS011;10018;51.230;7.860;2024-02-14T08:09:56;2.13;;;1.13;;
19733;SDS011;10018;51.230;7.860;2024-02-14T08:12:22;2.17;;;1.10;;
19733;SDS011;10018;51.230;7.860;2024-02-14T08:14:49;1.73;;;1.10;;
19733;SDS011;10018;51.230;7.860;2024-02-14T08:17:15;1.70;;;1.10;;
19733;SDS011;10018;51.230;7.860;2024-02-14T08:19:41;2.93;;;1.10;;
19733;SDS011;10018;51.230;7.860;2024-02-14T08:22:06;2.37;;;1.23;;
19733;SDS011;10018;51.230;7.860;2024-02-14T08:24:32;2.60;;;1.20;;
19733;SDS011;10018;51.230;7.860;2024-02-14T08:26:58;2.60;;;1.37;;
19733;SDS011;10018;51.230;7.860;2024-02-14T08:29:24;2.07;;;1.10;;
19733;SDS011;10018;51.230;7.860;2024-02-14T08:31:49;2.50;;;1.17;;
19733;SDS011;10018;51.230;7.860;2024-02-14T08:34:15;1.63;;;1.00;;
19733;SDS011;10018;51.230;7.860;2024-02-14T08:36:44;2.43;;;1.20;;
19733;SDS011;10018;51.230;7.860;2024-02-14T08:39:10;1.87;;;1.10;;
19733;SDS011;10018;51.230;7.860;2024-02-14T08:41:36;2.70;;;0.90;;
19733;SDS011;10018;51.230;7.860;2024-02-14T08:44:03;2.93;;;1.00;;
19733;SDS011;10018;51.230;7.860;2024-02-14T08:46:30;1.47;;;1.00;;
19733;SDS011;10018;51.230;7.860;2024-02-14T08:48:56;2.67;;;1.40;;
19733;SDS011;10018;51.230;7.860;2024-02-14T08:51:21;8.73;;;1.50;;
19733;SDS011;10018;51.230;7.860;2024-02-14T08:53:48;2.73;;;1.17;;
19733;SDS011;10018;51.230;7.860;2024-02-14T08:56:18;1.97;;;1.00;;
19733;SDS011;10018;51.230;7.860;2024-02-14T08:58:44;2.13;;;1.00;;
19733;SDS011;10018;51.230;7.860;2024-02-14T09:01:09;1.67;;;1.10;;
19733;SDS011;10018;51.230;7.860;2024-02-14T09:03:36;2.80;;;1.10;;
19733;SDS011;10018;51.230;7.860;2024-02-14T09:06:01;1.53;;;1.10;;
19733;SDS011;10018;51.230;7.860;2024-02-14T09:08:28;1.80;;;1.10;;
19733;SDS011;10018;51.230;7.860;2024-02-14T09:10:55;2.03;;;1.00;;
19733;SDS011;10018;51.230;7.860;2024-02-14T09:13:22;2.13;;;1.13;;
19733;SDS011;10018;51.230;7.860;2024-02-14T09:15:48;2.27;;;1.20;;
19733;SDS011;10018;51.230;7.860;2024-02-14T09:18:15;1.87;;;1.00;;
19733;SDS011;10018;51.230;7.860;2024-02-14T09:20:43;3.30;;;1.60;;
19733;SDS011;10018;51.230;7.860;2024-02-14T09:23:11;2.97;;;1.30;;
19733;SDS011;10018;51.230;7.860;2024-02-14T09:25:38;2.90;;;1.40;;
19733;SDS011;10018;51.230;7.860;2024-02-14T09:28:04;3.73;;;1.10;;
19733;SDS011;10018;51.230;7.860;2024-02-14T09:30:30;2.40;;;1.30;;
19733;SDS011;10018;51.230;7.860;2024-02-14T09:32:57;3.07;;;1.73;;
19733;SDS011;10018;51.230;7.860;2024-02-14T09:35:23;3.87;;;1.27;;
19733;SDS011;10018;51.230;7.860;2024-02-14T09:37:49;3.90;;;1.30;;
19733;SDS011;10018;51.230;7.860;2024-02-14T09:40:15;2.43;;;1.40;;
19733;SDS011;10018;51.230;7.860;2024-02-14T09:42:44;3.70;;;1.33;;
19733;SDS011;10018;51.230;7.860;2024-02-14T09:45:15;3.87;;;1.13;;
19733;SDS011;10018;51.230;7.860;2024-02-14T09:47:40;4.57;;;1.43;;
19733;SDS011;10018;51.230;7.860;2024-02-14T09:50:08;2.03;;;1.00;;
19733;SDS011;10018;51.230;7.860;2024-02-14T09:52:37;3.40;;;1.10;;
19733;SDS011;10018;51.230;7.860;2024-02-14T09:55:03;2.37;;;1.20;;
19733;SDS011;10018;51.230;7.860;2024-02-14T09:57:31;2.87;;;1.10;;
19733;SDS011;10018;51.230;7.860;2024-02-14T09:59:58;2.17;;;1.00;;
19733;SDS011;10018;51.230;7.860;2024-02-14T10:02:27;3.80;;;1.03;;
19733;SDS011;10018;51.230;7.860;2024-02-14T10:04:54;2.37;;;1.00;;
19733;SDS011;10018;51.230;7.860;2024-02-14T10:07:20;1.93;;;0.97;;
19733;SDS011;10018;51.230;7.860;2024-02-14T10:09:46;1.90;;;1.20;;
19733;SDS011;10018;51.230;7.860;2024-02-14T10:12:11;2.70;;;1.03;;
19733;SDS011;10018;51.230;7.860;2024-02-14T10:14:37;2.63;;;1.00;;
19733;SDS011;10018;51.230;7.860;2024-02-14T10:17:06;4.50;;;0.93;;
19733;SDS011;10018;51.230;7.860;2024-02-14T10:19:34;3.07;;;0.97;;
19733;SDS011;10018;51.230;7.860;2024-02-14T10:22:00;4.67;;;1.07;;
19733;SDS011;10018;51.230;7.860;2024-02-14T10:24:30;4.13;;;1.10;;
19733;SDS011;10018;51.230;7.860;2024-02-14T10:26:56;2.40;;;1.10;;
19733;SDS011;10018;51.230;7.860;2024-02-14T10:29:24;4.40;;;1.07;;
19733;SDS011;10018;51.230;7.860;2024-02-14T10:31:50;3.60;;;1.20;;
19733;SDS011;10018;51.230;7.860;2024-02-14T10:34:18;3.37;;;1.33;;
19733;SDS011;10018;51.230;7.860;2024-02-14T10:36:48;2.50;;;0.90;;
19733;SDS011;10018;51.230;7.860;2024-02-14T10:39:15;4.77;;;1.30;;
19733;SDS011;10018;51.230;7.860;2024-02-14T10:41:42;3.17;;;1.10;;
19733;SDS011;10018;51.230;7.860;2024-02-14T10:44:07;3.83;;;1.33;;
19733;SDS011;10018;51.230;7.860;2024-02-14T10:46:36;7.00;;;1.43;;
19733;SDS011;10018;51.230;7.860;2024-02-14T10:49:03;4.17;;;1.23;;
19733;SDS011;10018;51.230;7.860;2024-02-14T10:51:38;3.30;;;1.10;;
19733;SDS011;10018;51.230;7.860;2024-02-14T10:54:13;3.87;;;1.30;;
19733;SDS011;10018;51.230;7.860;2024-02-14T10:56:42;3.67;;;1.20;;
19733;SDS011;10018;51.230;7.860;2024-02-14T10:59:11;3.83;;;1.20;;
19733;SDS011;10018;51.230;7.860;2024-02-14T11:01:43;4.27;;;1.20;;
19733;SDS011;10018;51.230;7.860;2024-02-14T11:04:10;11.53;;;5.70;;
19733;SDS011;10018;51.230;7.860;2024-02-14T11:06:51;6.87;;;2.60;;
19733;SDS011;10018;51.230;7.860;2024-02-14T11:09:30;4.77;;;1.83;;
19733;SDS011;10018;51.230;7.860;2024-02-14T11:12:00;4.43;;;1.77;;
19733;SDS011;10018;51.230;7.860;2024-02-14T11:14:29;3.93;;;1.53;;
19733;SDS011;10018;51.230;7.860;2024-02-14T11:17:02;4.40;;;1.27;;
19733;SDS011;10018;51.230;7.860;2024-02-14T11:19:31;13.90;;;7.07;;
19733;SDS011;10018;51.230;7.860;2024-02-14T11:22:09;3.57;;;1.10;;
19733;SDS011;10018;51.230;7.860;2024-02-14T11:24:46;3.07;;;1.40;;
19733;SDS011;10018;51.230;7.860;2024-02-14T11:27:12;2.33;;;1.00;;
19733;SDS011;10018;51.230;7.860;2024-02-14T11:29:40;3.83;;;1.60;;
19733;SDS011;10018;51.230;7.860;2024-02-14T11:32:16;3.30;;;1.00;;
19733;SDS011;10018;51.230;7.860;2024-02-14T11:34:43;5.23;;;2.70;;
19733;SDS011;10018;51.230;7.860;2024-02-14T11:37:09;3.30;;;1.10;;
19733;SDS011;10018;51.230;7.860;2024-02-14T11:39:35;3.23;;;1.00;;
19733;SDS011;10018;51.230;7.860;2024-02-14T11:42:00;3.50;;;1.00;;
19733;SDS011;10018;51.230;7.860;2024-02-14T11:44:26;4.63;;;0.93;;
19733;SDS011;10018;51.230;7.860;2024-02-14T11:46:52;2.13;;;0.80;;
19733;SDS011;10018;51.230;7.860;2024-02-14T11:49:18;2.83;;;1.00;;
19733;SDS011;10018;51.230;7.860;2024-02-14T11:51:47;2.60;;;1.33;;
19733;SDS011;10018;51.230;7.860;2024-02-14T11:54:13;4.33;;;1.10;;
19733;SDS011;10018;51.230;7.860;2024-02-14T11:56:38;3.80;;;1.10;;
19733;SDS011;10018;51.230;7.860;2024-02-14T11:59:05;2.87;;;0.80;;
19733;SDS011;10018;51.230;7.860;2024-02-14T12:01:33;3.43;;;1.10;;
19733;SDS011;10018;51.230;7.860;2024-02-14T12:04:05;4.63;;;1.20;;
19733;SDS011;10018;51.230;7.860;2024-02-14T12:06:34;2.87;;;0.93;;
19733;SDS011;10018;51.230;7.860;2024-02-14T12:09:03;3.63;;;1.00;;
19733;SDS011;10018;51.230;7.860;2024-02-14T12:11:33;1.97;;;1.00;;
19733;SDS011;10018;51.230;7.860;2024-02-14T12:14:02;2.83;;;0.90;;
19733;SDS011;10018;51.230;7.860;2024-02-14T12:16:29;3.27;;;1.07;;
19733;SDS011;10018;51.230;7.860;2024-02-14T12:19:28;3.13;;;0.80;;
19733;SDS011;10018;51.230;7.860;2024-02-14T12:21:46;4.47;;;1.47;;
19733;SDS011;10018;51.230;7.860;2024-02-14T12:24:14;1.93;;;0.80;;
19733;SDS011;10018;51.230;7.860;2024-02-14T12:26:40;2.63;;;1.00;;
19733;SDS011;10018;51.230;7.860;2024-02-14T12:29:07;2.40;;;0.80;;
19733;SDS011;10018;51.230;7.860;2024-02-14T12:31:33;5.10;;;1.00;;
19733;SDS011;10018;51.230;7.860;2024-02-14T12:34:00;2.50;;;0.90;;
19733;SDS011;10018;51.230;7.860;2024-02-14T12:36:30;4.17;;;1.00;;
19733;SDS011;10018;51.230;7.860;2024-02-14T12:38:58;2.67;;;0.87;;
19733;SDS011;10018;51.230;7.860;2024-02-14T12:41:24;1.63;;;0.70;;
19733;SDS011;10018;51.230;7.860;2024-02-14T12:43:55;3.00;;;0.70;;
19733;SDS011;10018;51.230;7.860;2024-02-14T12:46:21;2.47;;;0.73;;
19733;SDS011;10018;51.230;7.860;2024-02-14T12:48:47;4.73;;;0.90;;
19733;SDS011;10018;51.230;7.860;2024-02-14T12:51:15;2.83;;;0.80;;
19733;SDS011;10018;51.230;7.860;2024-02-14T12:53:41;2.90;;;0.70;;
19733;SDS011;10018;51.230;7.860;2024-02-14T12:56:07;3.17;;;0.60;;
19733;SDS011;10018;51.230;7.860;2024-02-14T12:58:33;1.83;;;0.50;;
19733;SDS011;10018;51.230;7.860;2024-02-14T13:00:59;5.50;;;2.50;;
19733;SDS011;10018;51.230;7.860;2024-02-14T13:03:26;9.13;;;4.33;;
19733;SDS011;10018;51.230;7.860;2024-02-14T13:05:53;3.63;;;0.80;;
19733;SDS011;10018;51.230;7.860;2024-02-14T13:08:19;4.63;;;1.17;;
19733;SDS011;10018;51.230;7.860;2024-02-14T13:10:45;5.33;;;2.20;;
19733;SDS011;10018;51.230;7.860;2024-02-14T13:13:13;2.03;;;0.80;;
19733;SDS011;10018;51.230;7.860;2024-02-14T13:15:39;2.33;;;0.90;;
19733;SDS011;10018;51.230;7.860;2024-02-14T13:18:05;2.80;;;1.00;;
19733;SDS011;10018;51.230;7.860;2024-02-14T13:20:31;6.47;;;3.83;;
19733;SDS011;10018;51.230;7.860;2024-02-14T13:23:00;4.53;;;1.10;;
19733;SDS011;10018;51.230;7.860;2024-02-14T13:25:27;2.50;;;1.10;;
19733;SDS011;10018;51.230;7.860;2024-02-14T13:27:55;2.10;;;0.70;;
19733;SDS011;10018;51.230;7.860;2024-02-14T13:30:22;2.47;;;0.90;;
19733;SDS011;10018;51.230;7.860;2024-02-14T13:32:48;2.43;;;1.13;;
19733;SDS011;10018;51.230;7.860;2024-02-14T13:35:14;2.27;;;1.03;;
19733;SDS011;10018;51.230;7.860;2024-02-14T13:37:40;2.97;;;0.70;;
19733;SDS011;10018;51.230;7.860;2024-02-14T13:40:06;1.67;;;0.90;;
19733;SDS011;10018;51.230;7.860;2024-02-14T13:42:35;2.40;;;0.87;;
19733;SDS011;10018;51.230;7.860;2024-02-14T13:45:03;1.77;;;0.73;;
19733;SDS011;10018;51.230;7.860;2024-02-14T13:47:30;1.37;;;0.50;;
19733;SDS011;10018;51.230;7.860;2024-02-14T13:49:56;2.23;;;0.60;;
19733;SDS011;10018;51.230;7.860;2024-02-14T13:52:22;1.23;;;0.60;;
19733;SDS011;10018;51.230;7.860;2024-02-14T13:54:47;1.77;;;0.40;;
19733;SDS011;10018;51.230;7.860;2024-02-14T13:57:13;1.17;;;0.50;;
19733;SDS011;10018;51.230;7.860;2024-02-14T13:59:41;2.97;;;0.60;;
19733;SDS011;10018;51.230;7.860;2024-02-14T14:02:07;9.33;;;0.70;;
19733;SDS011;10018;51.230;7.860;2024-02-14T14:04:34;0.73;;;0.47;;
19733;SDS011;10018;51.230;7.860;2024-02-14T14:07:00;0.80;;;0.50;;
19733;SDS011;10018;51.230;7.860;2024-02-14T14:09:29;2.77;;;0.70;;
19733;SDS011;10018;51.230;7.860;2024-02-14T14:11:57;2.87;;;0.83;;
19733;SDS011;10018;51.230;7.860;2024-02-14T14:14:23;2.07;;;0.40;;
19733;SDS011;10018;51.230;7.860;2024-02-14T14:16:53;1.23;;;0.50;;
19733;SDS011;10018;51.230;7.860;2024-02-14T14:19:19;0.30;;;0.30;;
19733;SDS011;10018;51.230;7.860;2024-02-14T14:21:45;2.83;;;0.73;;
19733;SDS011;10018;51.230;7.860;2024-02-14T14:24:10;3.80;;;0.70;;
19733;SDS011;10018;51.230;7.860;2024-02-14T14:26:36;0.93;;;0.43;;
19733;SDS011;10018;51.230;7.860;2024-02-14T14:29:02;0.90;;;0.40;;
19733;SDS011;10018;51.230;7.860;2024-02-14T14:31:28;0.80;;;0.33;;
19733;SDS011;10018;51.230;7.860;2024-02-14T14:33:54;1.23;;;0.40;;
19733;SDS011;10018;51.230;7.860;2024-02-14T14:36:19;1.13;;;0.50;;
19733;SDS011;10018;51.230;7.860;2024-02-14T14:38:45;0.60;;;0.40;;
19733;SDS011;10018;51.230;7.860;2024-02-14T14:41:12;0.97;;;0.50;;
19733;SDS011;10018;51.230;7.860;2024-02-14T14:43:37;1.97;;;0.50;;
19733;SDS011;10018;51.230;7.860;2024-02-14T14:46:05;1.53;;;0.50;;